Clearview, Texas
Current Conditions -  °F | °C
As of 10:55 AM on Thursday 30 Oct 2014 (Local Time) from KGYB Reporting Station
Overcast Overcast  
Wind Chill: 19°   Ceiling: 4300
Heat Index: 19°   Visibility: 10mi
Dew Point: 10°   Wind: 3mph
Humidity: 56%   Direction: 120°ESE
Pressure: 30.2"   Gusts: NA
Location:  30.1644°N, 97.2747°W
Report Text: KGYB 301555Z AUTO 12003KT 10SM OVC043 19/10 A3020 RMK AO2 T01920101
Loading
Personal Weather Stations






























Interactive Weather Map
Tropical Storm Tracking
New forecast layout! Learn more

10-Day Weather Forecast

Advertisements
Track Severe Weather on mobile